Hlavní strana
METAR-TAF:

METAR-TAF

Letiště :

Letiště Split

Split, Chorvatsko

zeměpisná šířka: 43-32N, zeměpisná délka: 016-18E, výška: 19 m

Aktuální stav počasí

Zpráva byla vytvořena před 11 minutami, v 14:00 UTC
Jižní vítr 3 kt, proměnlivý mezi jihovýchodním a západním
Teplota 24°C
Vlhkost vzduchu 54%
Tlak 1022 hPa
Viditelnost 10 km a více
Žádná oblačnost pod 1500 m, nevyskytují se cumulonimby.

METAR: LDSP 141400Z 19003KT 140V270 CAVOK 24/14 Q1022 TEMPO 23007KT

Čas: 16:11 (14:11 UTC)

Předpověď počasí

Zpráva byla vytvořena před 2 hodinami a 46 minutami, v 11:25 UTC
Předpověď platná od 14 v 12 UTC do 15 v 12 UTC
Jihozápadní vítr 7 kt
Viditelnost 10 km a více
Žádná oblačnost pod 1500 m, nevyskytují se cumulonimby.
Změna
od 14 v 15 UTC do 14 v 17 UTC
vítr z různých směrů 2 kt

TAF: LDSP 141125Z 1412/1512 23007KT CAVOK TX26/1412Z TN13/1503Z BECMG 1415/1417 VRB02KT

Stav a předpovědi počasí z více než 4 000 letišť (zprávy METAR a TAF).

Červené a žluté tečky na mapě představují dostupné meteorologické stanice.

Když kurzor umístíte na tečku, zobrazí se název stanice.

Pak kliknutím zobrazíte stav a předpověď počasí.

Chcete-li změnit mapu, kliknutím na zelené tlačítko se znaménkem +mapu přiblížíte, kliknutím na zelené tlačítko se znaménkem – mapu oddálíte a kliknutím na zelené šipky přejdete na sousední mapy.


METAR-TAF: